Terminal Aerodrome Forecast
Issued by NWS

Home | Current Version | Previous Version | Graphics & Text | Print | Product List | Glossary On
Versions: 1 2 3 4 5 6 7 8 9 10 11 12 13 14 15 16 17 18 19 20
000
FTUS43 KMPX 250800 AAA
TAFAXN
TAF AMD
KAXN 250813Z 2508/2606 31009KT P6SM FEW050
     FM250930 28007KT P6SM OVC050
     FM251300 24005KT P6SM BKN020 OVC040
     FM252100 VRB03KT P6SM OVC020=

USA.gov is the U.S. government's official web portal to all federal, state and local government web resources and services.